Nyk Constellation — V7NP4 — position and weather

sailwx.info

Track history (hours):
 
Tides and Currents Weather Stations Pressure Air Temp Water Temp Dewpoint Dewpoint Depression Visibility Wind Speed Wind Dir Waves Ship Positions

Nyk Constellation

Last reported at 2015-Mar-26 14:17 UTC. Time now 2015-Apr-01 04:32 UTC.
Position N 35°26' E 141°03'.

Length 294 m; draft 11.6 m.

Type: Cargo ship. MMSI: 538002992.

Date/timePositionNaut miles runAvg speedWind from/ knotsBaromVisibWave heightAir tempDewpointWater temp
2015-Mar-26 14:17N 35°26' E 141°03'1419.1
2015-Mar-26 13:33N 35°18' E 140°49'2019.7
2015-Mar-26 12:33N 35°05' E 140°31'1919.1
2015-Mar-26 11:34N 34°54' E 140°12'2018.3
2015-Mar-26 10:29N 34°46' E 139°50'1111.9
2015-Mar-26 09:33N 34°54' E 139°40'1616.6
2015-Mar-26 08:33N 35°10' E 139°45'1211.5
2015-Mar-26 07:33N 35°21' E 139°42'1413.9
2015-Mar-26 06:33N 35°34' E 139°49'3 2.8
2015-Mar-26 05:26N 35°36' E 139°46'0 0.0
2015-Mar-26 04:32N 35°36' E 139°46'0 0.0
2015-Mar-26 03:23N 35°36' E 139°46'0 0.0
2015-Mar-26 02:26N 35°36' E 139°46'0 0.0
2015-Mar-26 01:32N 35°36' E 139°46'0 0.0
2015-Mar-26 00:26N 35°36' E 139°46'0 0.0
2015-Mar-25 23:32N 35°36' E 139°46'0 0.0
2015-Mar-25 22:29N 35°36' E 139°46'0 0.0
2015-Mar-25 21:32N 35°36' E 139°46'0 0.0
2015-Mar-25 20:26N 35°36' E 139°46'0 0.0
2015-Mar-25 19:26N 35°36' E 139°46'0 0.0
2015-Mar-25 18:20N 35°36' E 139°46'0 0.0
2015-Mar-25 17:26N 35°36' E 139°46'0 0.0
2015-Mar-25 16:29N 35°36' E 139°46'0 0.0
2015-Mar-25 15:34N 35°36' E 139°46'4 4.5
2015-Mar-25 14:33N 35°33' E 139°51'1211.6
2015-Mar-25 13:34N 35°22' E 139°45'1211.5
2015-Mar-25 12:34N 35°11' E 139°47'1010.2
2015-Mar-25 11:34N 35°02' E 139°40'1716.5
2015-Mar-25 10:34N 34°54' E 139°23'5015.4
2015-Mar-25 07:18N 34°28' E 138°31'182 5.5
2015-Mar-23 22:33N 33°55' E 134°55'1616.4
2015-Mar-23 21:34N 34°11' E 134°58'1414.1
2015-Mar-23 20:33N 34°24' E 135°03'1817.6
2015-Mar-23 19:33N 34°37' E 135°18'4 3.7
2015-Mar-23 18:33N 34°41' E 135°17'0 0.0
2015-Mar-23 17:33N 34°41' E 135°17'0 0.0
2015-Mar-23 16:27N 34°41' E 135°17'0 0.0
2015-Mar-23 15:33N 34°41' E 135°17'0 0.0
2015-Mar-23 14:33N 34°41' E 135°17'0 0.0
2015-Mar-23 13:33N 34°41' E 135°17'0 0.0
2015-Mar-23 12:33N 34°41' E 135°17'0 0.0
2015-Mar-23 11:33N 34°41' E 135°17'0 0.0
2015-Mar-23 10:33N 34°41' E 135°17'0 0.0
2015-Mar-23 09:33N 34°41' E 135°17'0 0.0
2015-Mar-23 08:27N 34°41' E 135°17'0 0.0
2015-Mar-23 07:33N 34°41' E 135°17'7 7.4
2015-Mar-23 06:33N 34°34' E 135°16'1918.9
2015-Mar-23 05:33N 34°19' E 135°01'1211.8
2015-Mar-23 04:33N 34°07' E 134°59'9 8.9
2015-Mar-23 03:30N 33°58' E 134°58'  
2015-Mar-19 20:21N 30°40' E 123°11'1316.6
2015-Mar-19 19:34N 30°36' E 122°56'1817.7
2015-Mar-19 18:32N 30°32' E 122°35'1414.5
2015-Mar-19 17:33N 30°33' E 122°19'1212.2
2015-Mar-19 16:33N 30°36' E 122°05'1 0.6
2015-Mar-19 15:27N 30°37' E 122°05'0 0.0
2015-Mar-19 14:27N 30°37' E 122°05'0 0.0
2015-Mar-19 13:33N 30°37' E 122°05'0 0.0
2015-Mar-19 12:33N 30°37' E 122°05'0 0.0
2015-Mar-19 11:33N 30°37' E 122°05'0 0.0
2015-Mar-19 10:33N 30°37' E 122°05'0 0.0
2015-Mar-19 09:33N 30°37' E 122°05'0 0.0
2015-Mar-19 07:30N 30°37' E 122°05'1 0.8
2015-Mar-19 06:33N 30°36' E 122°05'10 9.8
2015-Mar-19 05:33N 30°33' E 122°16'7 7.1
2015-Mar-19 04:33N 30°32' E 122°24'13 0.3
2015-Mar-17 09:22N 30°27' E 122°39'  
Track history (hours):
 
Tides and Currents Weather Stations Pressure Air Temp Water Temp Dewpoint Dewpoint Depression Visibility Wind Speed Wind Dir Waves Ship Positions

Nyk Constellation

Last reported at 2015-Mar-26 14:17 UTC. Time now 2015-Apr-01 04:32 UTC.
Position N 35°26' E 141°03'.

Length 294 m; draft 11.6 m.

Type: Cargo ship. MMSI: 538002992.

Date/timePositionNaut miles runAvg speedWind from/ knotsBaromVisibWave heightAir tempDewpointWater temp
2015-Mar-26 14:17N 35°26' E 141°03'1419.1
2015-Mar-26 13:33N 35°18' E 140°49'2019.7
2015-Mar-26 12:33N 35°05' E 140°31'1919.1
2015-Mar-26 11:34N 34°54' E 140°12'2018.3
2015-Mar-26 10:29N 34°46' E 139°50'1111.9
2015-Mar-26 09:33N 34°54' E 139°40'1616.6
2015-Mar-26 08:33N 35°10' E 139°45'1211.5
2015-Mar-26 07:33N 35°21' E 139°42'1413.9
2015-Mar-26 06:33N 35°34' E 139°49'3 2.8
2015-Mar-26 05:26N 35°36' E 139°46'0 0.0
2015-Mar-26 04:32N 35°36' E 139°46'0 0.0
2015-Mar-26 03:23N 35°36' E 139°46'0 0.0
2015-Mar-26 02:26N 35°36' E 139°46'0 0.0
2015-Mar-26 01:32N 35°36' E 139°46'0 0.0
2015-Mar-26 00:26N 35°36' E 139°46'0 0.0
2015-Mar-25 23:32N 35°36' E 139°46'0 0.0
2015-Mar-25 22:29N 35°36' E 139°46'0 0.0
2015-Mar-25 21:32N 35°36' E 139°46'0 0.0
2015-Mar-25 20:26N 35°36' E 139°46'0 0.0
2015-Mar-25 19:26N 35°36' E 139°46'0 0.0
2015-Mar-25 18:20N 35°36' E 139°46'0 0.0
2015-Mar-25 17:26N 35°36' E 139°46'0 0.0
2015-Mar-25 16:29N 35°36' E 139°46'0 0.0
2015-Mar-25 15:34N 35°36' E 139°46'4 4.5
2015-Mar-25 14:33N 35°33' E 139°51'1211.6
2015-Mar-25 13:34N 35°22' E 139°45'1211.5
2015-Mar-25 12:34N 35°11' E 139°47'1010.2
2015-Mar-25 11:34N 35°02' E 139°40'1716.5
2015-Mar-25 10:34N 34°54' E 139°23'5015.4
2015-Mar-25 07:18N 34°28' E 138°31'182 5.5
2015-Mar-23 22:33N 33°55' E 134°55'1616.4
2015-Mar-23 21:34N 34°11' E 134°58'1414.1
2015-Mar-23 20:33N 34°24' E 135°03'1817.6
2015-Mar-23 19:33N 34°37' E 135°18'4 3.7
2015-Mar-23 18:33N 34°41' E 135°17'0 0.0
2015-Mar-23 17:33N 34°41' E 135°17'0 0.0
2015-Mar-23 16:27N 34°41' E 135°17'0 0.0
2015-Mar-23 15:33N 34°41' E 135°17'0 0.0
2015-Mar-23 14:33N 34°41' E 135°17'0 0.0
2015-Mar-23 13:33N 34°41' E 135°17'0 0.0
2015-Mar-23 12:33N 34°41' E 135°17'0 0.0
2015-Mar-23 11:33N 34°41' E 135°17'0 0.0
2015-Mar-23 10:33N 34°41' E 135°17'0 0.0
2015-Mar-23 09:33N 34°41' E 135°17'0 0.0
2015-Mar-23 08:27N 34°41' E 135°17'0 0.0
2015-Mar-23 07:33N 34°41' E 135°17'7 7.4
2015-Mar-23 06:33N 34°34' E 135°16'1918.9
2015-Mar-23 05:33N 34°19' E 135°01'1211.8
2015-Mar-23 04:33N 34°07' E 134°59'9 8.9
2015-Mar-23 03:30N 33°58' E 134°58'  
2015-Mar-19 20:21N 30°40' E 123°11'1316.6
2015-Mar-19 19:34N 30°36' E 122°56'1817.7
2015-Mar-19 18:32N 30°32' E 122°35'1414.5
2015-Mar-19 17:33N 30°33' E 122°19'1212.2
2015-Mar-19 16:33N 30°36' E 122°05'1 0.6
2015-Mar-19 15:27N 30°37' E 122°05'0 0.0
2015-Mar-19 14:27N 30°37' E 122°05'0 0.0
2015-Mar-19 13:33N 30°37' E 122°05'0 0.0
2015-Mar-19 12:33N 30°37' E 122°05'0 0.0
2015-Mar-19 11:33N 30°37' E 122°05'0 0.0
2015-Mar-19 10:33N 30°37' E 122°05'0 0.0
2015-Mar-19 09:33N 30°37' E 122°05'0 0.0
2015-Mar-19 07:30N 30°37' E 122°05'1 0.8
2015-Mar-19 06:33N 30°36' E 122°05'10 9.8
2015-Mar-19 05:33N 30°33' E 122°16'7 7.1
2015-Mar-19 04:33N 30°32' E 122°24'13 0.3
2015-Mar-17 09:22N 30°27' E 122°39'  

Dump ship's entire track history